sensor_id;sensor_type;location;lat;lon;timestamp;pressure;altitude;pressure_sealevel;temperature;humidity
3122;BME280;1571;52.524;14.104;2023-03-03T00:01:07;101889.06;;;-1.20;100.00
3122;BME280;1571;52.524;14.104;2023-03-03T00:03:35;101895.13;;;-1.27;100.00
3122;BME280;1571;52.524;14.104;2023-03-03T00:06:04;101893.25;;;-1.51;100.00
3122;BME280;1571;52.524;14.104;2023-03-03T00:08:33;101889.88;;;-1.35;100.00
3122;BME280;1571;52.524;14.104;2023-03-03T00:11:02;101888.13;;;-1.39;100.00
3122;BME280;1571;52.524;14.104;2023-03-03T00:13:40;101894.88;;;-1.73;100.00
3122;BME280;1571;52.524;14.104;2023-03-03T00:16:13;101883.81;;;-1.31;100.00
3122;BME280;1571;52.524;14.104;2023-03-03T00:18:44;101887.28;;;-1.36;100.00
3122;BME280;1571;52.524;14.104;2023-03-03T00:21:26;101877.72;;;-1.37;100.00
3122;BME280;1571;52.524;14.104;2023-03-03T00:24:14;101879.47;;;-1.33;100.00
3122;BME280;1571;52.524;14.104;2023-03-03T00:26:45;101864.75;;;-1.23;100.00
3122;BME280;1571;52.524;14.104;2023-03-03T00:29:27;101860.41;;;-1.23;100.00
3122;BME280;1571;52.524;14.104;2023-03-03T00:32:16;101864.69;;;-1.34;100.00
3122;BME280;1571;52.524;14.104;2023-03-03T00:34:46;101866.47;;;-1.30;100.00
3122;BME280;1571;52.524;14.104;2023-03-03T00:37:33;101868.19;;;-1.32;100.00
3122;BME280;1571;52.524;14.104;2023-03-03T00:40:22;101866.47;;;-1.22;100.00
3122;BME280;1571;52.524;14.104;2023-03-03T00:42:52;101857.00;;;-1.05;100.00
3122;BME280;1571;52.524;14.104;2023-03-03T00:45:30;101854.34;;;-1.13;100.00
3122;BME280;1571;52.524;14.104;2023-03-03T00:48:10;101847.41;;;-1.21;100.00
3122;BME280;1571;52.524;14.104;2023-03-03T00:50:44;101844.88;;;-0.94;100.00
3122;BME280;1571;52.524;14.104;2023-03-03T00:53:13;101848.38;;;-0.81;100.00
3122;BME280;1571;52.524;14.104;2023-03-03T00:55:44;101832.69;;;-0.90;100.00
3122;BME280;1571;52.524;14.104;2023-03-03T00:58:12;101830.06;;;-1.02;100.00
3122;BME280;1571;52.524;14.104;2023-03-03T01:00:44;101824.81;;;-1.18;100.00
3122;BME280;1571;52.524;14.104;2023-03-03T01:03:18;101823.97;;;-1.08;100.00
3122;BME280;1571;52.524;14.104;2023-03-03T01:05:48;101830.03;;;-1.09;100.00
3122;BME280;1571;52.524;14.104;2023-03-03T01:08:16;101808.34;;;-1.05;100.00
3122;BME280;1571;52.524;14.104;2023-03-03T01:10:47;101811.81;;;-1.04;100.00
3122;BME280;1571;52.524;14.104;2023-03-03T01:13:18;101819.63;;;-1.15;100.00
3122;BME280;1571;52.524;14.104;2023-03-03T01:15:47;101817.03;;;-1.15;100.00
3122;BME280;1571;52.524;14.104;2023-03-03T01:18:17;101816.09;;;-1.32;100.00
3122;BME280;1571;52.524;14.104;2023-03-03T01:20:46;101815.22;;;-1.22;100.00
3122;BME280;1571;52.524;14.104;2023-03-03T01:23:14;101807.38;;;-1.31;100.00
3122;BME280;1571;52.524;14.104;2023-03-03T01:25:43;101802.19;;;-1.25;100.00
3122;BME280;1571;52.524;14.104;2023-03-03T01:28:11;101800.50;;;-1.18;100.00
3122;BME280;1571;52.524;14.104;2023-03-03T01:30:39;101791.81;;;-1.13;100.00
3122;BME280;1571;52.524;14.104;2023-03-03T01:33:07;101791.84;;;-0.88;100.00
3122;BME280;1571;52.524;14.104;2023-03-03T01:35:37;101794.41;;;-1.17;100.00
3122;BME280;1571;52.524;14.104;2023-03-03T01:38:10;101797.88;;;-1.21;100.00
3122;BME280;1571;52.524;14.104;2023-03-03T01:40:39;101792.66;;;-1.18;100.00
3122;BME280;1571;52.524;14.104;2023-03-03T01:43:07;101792.66;;;-1.18;100.00
3122;BME280;1571;52.524;14.104;2023-03-03T01:48:29;101782.25;;;-1.15;100.00
3122;BME280;1571;52.524;14.104;2023-03-03T01:51:02;101774.47;;;-1.05;100.00
3122;BME280;1571;52.524;14.104;2023-03-03T01:53:33;101776.22;;;-0.87;100.00
3122;BME280;1571;52.524;14.104;2023-03-03T01:56:05;101775.28;;;-1.21;100.00
3122;BME280;1571;52.524;14.104;2023-03-03T01:58:36;101778.78;;;-1.16;100.00
3122;BME280;1571;52.524;14.104;2023-03-03T02:01:11;101776.19;;;-1.19;100.00
3122;BME280;1571;52.524;14.104;2023-03-03T02:03:42;101780.50;;;-1.13;100.00
3122;BME280;1571;52.524;14.104;2023-03-03T02:06:14;101787.44;;;-1.28;100.00
3122;BME280;1571;52.524;14.104;2023-03-03T02:08:47;101794.38;;;-1.22;100.00
3122;BME280;1571;52.524;14.104;2023-03-03T02:11:19;101797.88;;;-1.23;100.00
3122;BME280;1571;52.524;14.104;2023-03-03T02:13:49;101782.25;;;-1.21;100.00
3122;BME280;1571;52.524;14.104;2023-03-03T02:16:17;101785.75;;;-1.12;100.00
3122;BME280;1571;52.524;14.104;2023-03-03T02:18:46;101781.41;;;-0.97;100.00
3122;BME280;1571;52.524;14.104;2023-03-03T02:21:17;101779.66;;;-1.05;100.00
3122;BME280;1571;52.524;14.104;2023-03-03T02:23:49;101790.06;;;-1.23;100.00
3122;BME280;1571;52.524;14.104;2023-03-03T02:26:23;101781.41;;;-0.97;100.00
3122;BME280;1571;52.524;14.104;2023-03-03T02:28:58;101789.25;;;-0.99;100.00
3122;BME280;1571;52.524;14.104;2023-03-03T02:31:29;101790.09;;;-1.08;100.00
3122;BME280;1571;52.524;14.104;2023-03-03T02:33:58;101789.19;;;-1.22;100.00
3122;BME280;1571;52.524;14.104;2023-03-03T02:36:28;101788.31;;;-1.22;100.00
3122;BME280;1571;52.524;14.104;2023-03-03T02:39:02;101788.34;;;-1.16;100.00
3122;BME280;1571;52.524;14.104;2023-03-03T02:41:35;101791.81;;;-1.16;100.00
3122;BME280;1571;52.524;14.104;2023-03-03T02:44:08;101787.47;;;-1.21;100.00
3122;BME280;1571;52.524;14.104;2023-03-03T02:46:38;101777.94;;;-1.12;100.00
3122;BME280;1571;52.524;14.104;2023-03-03T02:49:09;101784.84;;;-1.11;100.00
3122;BME280;1571;52.524;14.104;2023-03-03T02:51:38;101777.06;;;-1.12;100.00
3122;BME280;1571;52.524;14.104;2023-03-03T02:54:08;101779.66;;;-1.17;100.00
3122;BME280;1571;52.524;14.104;2023-03-03T02:56:38;101788.34;;;-1.15;100.00
3122;BME280;1571;52.524;14.104;2023-03-03T02:59:07;101793.56;;;-1.09;100.00
3122;BME280;1571;52.524;14.104;2023-03-03T03:01:40;101781.44;;;-0.85;100.00
3122;BME280;1571;52.524;14.104;2023-03-03T03:04:14;101781.44;;;-0.77;100.00
3122;BME280;1571;52.524;14.104;2023-03-03T03:06:45;101777.09;;;-0.80;100.00
3122;BME280;1571;52.524;14.104;2023-03-03T03:09:17;101784.06;;;-0.57;100.00
3122;BME280;1571;52.524;14.104;2023-03-03T03:11:49;101782.31;;;-0.83;100.00
3122;BME280;1571;52.524;14.104;2023-03-03T03:14:20;101792.75;;;-0.88;100.00
3122;BME280;1571;52.524;14.104;2023-03-03T03:16:49;101797.09;;;-0.85;100.00
3122;BME280;1571;52.524;14.104;2023-03-03T03:19:18;101797.09;;;-0.87;100.00
3122;BME280;1571;52.524;14.104;2023-03-03T03:21:47;101802.31;;;-0.67;100.00
3122;BME280;1571;52.524;14.104;2023-03-03T03:24:16;101798.84;;;-0.72;100.00
3122;BME280;1571;52.524;14.104;2023-03-03T03:26:53;101793.63;;;-0.72;100.00
3122;BME280;1571;52.524;14.104;2023-03-03T03:29:23;101789.28;;;-0.53;100.00
3122;BME280;1571;52.524;14.104;2023-03-03T03:31:52;101798.88;;;-0.52;100.00
3122;BME280;1571;52.524;14.104;2023-03-03T03:34:20;101793.63;;;-0.72;100.00
3122;BME280;1571;52.524;14.104;2023-03-03T03:36:50;101791.88;;;-0.79;100.00
3122;BME280;1571;52.524;14.104;2023-03-03T03:39:20;101797.06;;;-0.93;100.00
3122;BME280;1571;52.524;14.104;2023-03-03T03:41:50;101798.81;;;-0.87;100.00
3122;BME280;1571;52.524;14.104;2023-03-03T03:44:20;101782.31;;;-0.80;100.00
3122;BME280;1571;52.524;14.104;2023-03-03T03:46:50;101772.78;;;-0.63;100.00
3122;BME280;1571;52.524;14.104;2023-03-03T03:49:18;101774.50;;;-0.46;100.00
3122;BME280;1571;52.524;14.104;2023-03-03T03:51:49;101769.28;;;-0.61;100.00
3122;BME280;1571;52.524;14.104;2023-03-03T03:54:20;101760.59;;;-0.53;100.00
3122;BME280;1571;52.524;14.104;2023-03-03T03:56:49;101764.06;;;-0.38;100.00
3122;BME280;1571;52.524;14.104;2023-03-03T03:59:20;101762.31;;;-0.41;100.00
3122;BME280;1571;52.524;14.104;2023-03-03T04:01:48;101749.31;;;-0.52;100.00
3122;BME280;1571;52.524;14.104;2023-03-03T04:04:18;101744.09;;;-0.52;100.00
3122;BME280;1571;52.524;14.104;2023-03-03T04:06:47;101735.38;;;-0.68;100.00
3122;BME280;1571;52.524;14.104;2023-03-03T04:09:16;101741.47;;;-0.81;100.00
3122;BME280;1571;52.524;14.104;2023-03-03T04:11:45;101734.50;;;-0.59;100.00
3122;BME280;1571;52.524;14.104;2023-03-03T04:14:14;101733.66;;;-0.72;100.00
3122;BME280;1571;52.524;14.104;2023-03-03T04:16:44;101729.31;;;-0.90;100.00
3122;BME280;1571;52.524;14.104;2023-03-03T04:19:12;101730.16;;;-0.57;100.00
3122;BME280;1571;52.524;14.104;2023-03-03T04:21:42;101717.13;;;-0.65;100.00
3122;BME280;1571;52.524;14.104;2023-03-03T04:24:10;101724.97;;;-0.74;100.00
3122;BME280;1571;52.524;14.104;2023-03-03T04:26:38;101732.78;;;-0.89;100.00
3122;BME280;1571;52.524;14.104;2023-03-03T04:29:08;101742.31;;;-1.02;100.00
3122;BME280;1571;52.524;14.104;2023-03-03T04:31:36;101728.44;;;-0.96;100.00
3122;BME280;1571;52.524;14.104;2023-03-03T04:34:09;101734.50;;;-1.00;100.00
3122;BME280;1571;52.524;14.104;2023-03-03T04:36:38;101733.63;;;-0.95;100.00
3122;BME280;1571;52.524;14.104;2023-03-03T04:39:06;101738.88;;;-0.86;100.00
3122;BME280;1571;52.524;14.104;2023-03-03T04:41:35;101722.34;;;-0.72;100.00
3122;BME280;1571;52.524;14.104;2023-03-03T04:44:03;101732.78;;;-0.89;100.00
3122;BME280;1571;52.524;14.104;2023-03-03T04:46:32;101735.38;;;-1.05;100.00
3122;BME280;1571;52.524;14.104;2023-03-03T04:49:01;101729.28;;;-1.07;100.00
3122;BME280;1571;52.524;14.104;2023-03-03T04:51:34;101730.16;;;-0.85;100.00
3122;BME280;1571;52.524;14.104;2023-03-03T04:54:02;101736.28;;;-0.81;100.00
3122;BME280;1571;52.524;14.104;2023-03-03T04:56:30;101738.00;;;-0.61;100.00
3122;BME280;1571;52.524;14.104;2023-03-03T04:58:59;101728.44;;;-0.81;100.00
3122;BME280;1571;52.524;14.104;2023-03-03T05:01:27;101731.91;;;-0.93;100.00
3122;BME280;1571;52.524;14.104;2023-03-03T05:03:56;101733.63;;;-0.70;100.00
3122;BME280;1571;52.524;14.104;2023-03-03T05:06:24;101732.78;;;-0.83;100.00
3122;BME280;1571;52.524;14.104;2023-03-03T05:08:53;101731.91;;;-0.60;100.00
3122;BME280;1571;52.524;14.104;2023-03-03T05:11:21;101728.44;;;-0.69;100.00
3122;BME280;1571;52.524;14.104;2023-03-03T05:13:50;101726.69;;;-0.71;100.00
3122;BME280;1571;52.524;14.104;2023-03-03T05:16:18;101716.25;;;-0.77;100.00
3122;BME280;1571;52.524;14.104;2023-03-03T05:18:47;101729.28;;;-0.84;100.00
3122;BME280;1571;52.524;14.104;2023-03-03T05:21:15;101729.28;;;-0.96;100.00
3122;BME280;1571;52.524;14.104;2023-03-03T05:23:43;101724.94;;;-0.77;100.00
3122;BME280;1571;52.524;14.104;2023-03-03T05:26:13;101729.31;;;-0.80;100.00
3122;BME280;1571;52.524;14.104;2023-03-03T05:28:41;101741.47;;;-0.93;100.00
3122;BME280;1571;52.524;14.104;2023-03-03T05:31:09;101740.59;;;-0.94;100.00
3122;BME280;1571;52.524;14.104;2023-03-03T05:33:38;101743.22;;;-0.71;100.00
3122;BME280;1571;52.524;14.104;2023-03-03T05:36:07;101748.44;;;-0.83;100.00
3122;BME280;1571;52.524;14.104;2023-03-03T05:38:35;101746.66;;;-1.12;100.00
3122;BME280;1571;52.524;14.104;2023-03-03T05:41:03;101741.47;;;-0.96;100.00
3122;BME280;1571;52.524;14.104;2023-03-03T05:43:33;101747.56;;;-0.99;100.00
3122;BME280;1571;52.524;14.104;2023-03-03T05:46:02;101756.25;;;-0.85;100.00
3122;BME280;1571;52.524;14.104;2023-03-03T05:48:30;101747.56;;;-0.99;100.00
3122;BME280;1571;52.524;14.104;2023-03-03T05:50:59;101746.69;;;-0.79;100.00
3122;BME280;1571;52.524;14.104;2023-03-03T05:53:28;101746.69;;;-0.89;100.00
3122;BME280;1571;52.524;14.104;2023-03-03T05:55:56;101758.84;;;-0.86;100.00
3122;BME280;1571;52.524;14.104;2023-03-03T05:58:24;101764.00;;;-1.11;100.00
3122;BME280;1571;52.524;14.104;2023-03-03T06:00:54;101761.41;;;-1.17;100.00
3122;BME280;1571;52.524;14.104;2023-03-03T06:03:23;101751.88;;;-1.12;100.00
3122;BME280;1571;52.524;14.104;2023-03-03T06:05:51;101749.28;;;-0.96;100.00
3122;BME280;1571;52.524;14.104;2023-03-03T06:08:19;101742.31;;;-1.07;100.00
3122;BME280;1571;52.524;14.104;2023-03-03T06:10:48;101742.31;;;-1.02;100.00
3122;BME280;1571;52.524;14.104;2023-03-03T06:13:16;101749.28;;;-1.06;100.00
3122;BME280;1571;52.524;14.104;2023-03-03T06:15:47;101743.16;;;-1.15;100.00
3122;BME280;1571;52.524;14.104;2023-03-03T06:18:16;101750.13;;;-1.07;100.00
3122;BME280;1571;52.524;14.104;2023-03-03T06:20:50;101757.06;;;-1.12;100.00
3122;BME280;1571;52.524;14.104;2023-03-03T06:23:18;101768.38;;;-1.05;100.00
3122;BME280;1571;52.524;14.104;2023-03-03T06:25:47;101773.59;;;-1.00;100.00
3122;BME280;1571;52.524;14.104;2023-03-03T06:28:15;101783.16;;;-0.93;100.00
3122;BME280;1571;52.524;14.104;2023-03-03T06:30:43;101781.44;;;-0.68;100.00
3122;BME280;1571;52.524;14.104;2023-03-03T06:33:12;101787.56;;;-0.69;100.00
3122;BME280;1571;52.524;14.104;2023-03-03T06:35:41;101779.75;;;-0.63;100.00
3122;BME280;1571;52.524;14.104;2023-03-03T06:38:10;101780.59;;;-0.61;100.00
3122;BME280;1571;52.524;14.104;2023-03-03T06:40:38;101771.03;;;-0.53;100.00
3122;BME280;1571;52.524;14.104;2023-03-03T06:43:06;101771.91;;;-0.61;100.00
3122;BME280;1571;52.524;14.104;2023-03-03T06:45:35;101769.28;;;-0.65;100.00
3122;BME280;1571;52.524;14.104;2023-03-03T06:48:04;101784.06;;;-0.77;100.00
3122;BME280;1571;52.524;14.104;2023-03-03T06:50:32;101791.00;;;-0.82;100.00
3122;BME280;1571;52.524;14.104;2023-03-03T06:53:09;101804.06;;;-0.69;100.00
3122;BME280;1571;52.524;14.104;2023-03-03T06:55:38;101794.50;;;-0.80;100.00
3122;BME280;1571;52.524;14.104;2023-03-03T06:58:10;101797.06;;;-0.97;100.00
3122;BME280;1571;52.524;14.104;2023-03-03T07:00:41;101811.84;;;-0.96;100.00
3122;BME280;1571;52.524;14.104;2023-03-03T07:03:14;101803.13;;;-1.01;100.00
3122;BME280;1571;52.524;14.104;2023-03-03T07:05:42;101810.91;;;-1.15;100.00
3122;BME280;1571;52.524;14.104;2023-03-03T07:08:14;101812.56;;;-1.43;100.00
3122;BME280;1571;52.524;14.104;2023-03-03T07:10:44;101816.94;;;-1.33;100.00
3122;BME280;1571;52.524;14.104;2023-03-03T07:13:18;101811.72;;;-1.36;100.00
3122;BME280;1571;52.524;14.104;2023-03-03T07:15:48;101810.91;;;-1.23;100.00
3122;BME280;1571;52.524;14.104;2023-03-03T07:18:24;101810.91;;;-1.20;100.00
3122;BME280;1571;52.524;14.104;2023-03-03T07:20:55;101811.72;;;-1.39;100.00
3122;BME280;1571;52.524;14.104;2023-03-03T07:23:28;101815.19;;;-1.37;100.00
3122;BME280;1571;52.524;14.104;2023-03-03T07:25:59;101821.25;;;-1.40;100.00
3122;BME280;1571;52.524;14.104;2023-03-03T07:28:28;101828.22;;;-1.37;100.00
3122;BME280;1571;52.524;14.104;2023-03-03T07:30:59;101835.97;;;-1.47;100.00
3122;BME280;1571;52.524;14.104;2023-03-03T07:33:33;101829.03;;;-1.48;100.00
3122;BME280;1571;52.524;14.104;2023-03-03T07:36:03;101835.16;;;-1.44;100.00
3122;BME280;1571;52.524;14.104;2023-03-03T07:38:38;101836.81;;;-1.54;100.00
3122;BME280;1571;52.524;14.104;2023-03-03T07:41:11;101839.41;;;-1.58;100.00
3122;BME280;1571;52.524;14.104;2023-03-03T07:43:47;101836.75;;;-1.66;100.00
3122;BME280;1571;52.524;14.104;2023-03-03T07:46:24;101835.91;;;-1.62;100.00
3122;BME280;1571;52.524;14.104;2023-03-03T07:48:55;101840.28;;;-1.55;100.00
3122;BME280;1571;52.524;14.104;2023-03-03T07:51:26;101832.47;;;-1.53;100.00
3122;BME280;1571;52.524;14.104;2023-03-03T07:54:13;101835.94;;;-1.56;100.00
3122;BME280;1571;52.524;14.104;2023-03-03T07:56:45;101836.88;;;-1.41;100.00
3122;BME280;1571;52.524;14.104;2023-03-03T07:59:19;101833.47;;;-1.25;100.00
3122;BME280;1571;52.524;14.104;2023-03-03T08:01:50;101837.00;;;-1.08;100.00
3122;BME280;1571;52.524;14.104;2023-03-03T08:04:23;101837.00;;;-1.01;100.00
3122;BME280;1571;52.524;14.104;2023-03-03T08:06:53;101842.25;;;-0.97;100.00
3122;BME280;1571;52.524;14.104;2023-03-03T08:09:46;101835.34;;;-0.87;100.00
3122;BME280;1571;52.524;14.104;2023-03-03T08:12:37;101830.06;;;-1.02;100.00
3122;BME280;1571;52.524;14.104;2023-03-03T08:15:18;101828.31;;;-1.07;100.00
3122;BME280;1571;52.524;14.104;2023-03-03T08:17:47;101820.53;;;-0.99;100.00
3122;BME280;1571;52.524;14.104;2023-03-03T08:20:38;101817.03;;;-1.02;100.00
3122;BME280;1571;52.524;14.104;2023-03-03T08:23:08;101812.75;;;-0.85;100.00
3122;BME280;1571;52.524;14.104;2023-03-03T08:25:38;101815.38;;;-0.71;100.00
3122;BME280;1571;52.524;14.104;2023-03-03T08:28:09;101811.91;;;-0.72;100.00
3122;BME280;1571;52.524;14.104;2023-03-03T08:30:39;101801.44;;;-0.82;100.00
3122;BME280;1571;52.524;14.104;2023-03-03T08:33:07;101801.44;;;-0.73;100.00
3122;BME280;1571;52.524;14.104;2023-03-03T08:35:36;101803.19;;;-0.71;100.00
3122;BME280;1571;52.524;14.104;2023-03-03T08:38:04;101804.06;;;-0.66;100.00
3122;BME280;1571;52.524;14.104;2023-03-03T08:40:33;101800.59;;;-0.61;100.00
3122;BME280;1571;52.524;14.104;2023-03-03T08:43:04;101803.16;;;-0.81;100.00
3122;BME280;1571;52.524;14.104;2023-03-03T08:45:33;101799.72;;;-0.71;100.00
3122;BME280;1571;52.524;14.104;2023-03-03T08:48:02;101804.06;;;-0.63;100.00
3122;BME280;1571;52.524;14.104;2023-03-03T08:50:32;101792.78;;;-0.42;100.00
3122;BME280;1571;52.524;14.104;2023-03-03T08:53:00;101813.63;;;-0.66;100.00
3122;BME280;1571;52.524;14.104;2023-03-03T08:55:28;101805.81;;;-0.66;100.00
3122;BME280;1571;52.524;14.104;2023-03-03T08:57:57;101811.03;;;-0.43;100.00
3122;BME280;1571;52.524;14.104;2023-03-03T09:00:26;101816.25;;;-0.40;100.00
3122;BME280;1571;52.524;14.104;2023-03-03T09:02:54;101801.47;;;-0.58;100.00
3122;BME280;1571;52.524;14.104;2023-03-03T09:05:23;101804.94;;;-0.53;100.00
3122;BME280;1571;52.524;14.104;2023-03-03T09:07:52;101802.34;;;-0.48;100.00
3122;BME280;1571;52.524;14.104;2023-03-03T09:10:23;101798.00;;;-0.54;100.00
3122;BME280;1571;52.524;14.104;2023-03-03T09:12:54;101802.34;;;-0.60;100.00
3122;BME280;1571;52.524;14.104;2023-03-03T09:15:27;101788.44;;;-0.44;100.00
3122;BME280;1571;52.524;14.104;2023-03-03T09:17:57;101799.72;;;-0.50;100.00
3122;BME280;1571;52.524;14.104;2023-03-03T09:20:31;101800.59;;;-0.46;100.00
3122;BME280;1571;52.524;14.104;2023-03-03T09:23:29;101808.44;;;-0.46;100.00
3122;BME280;1571;52.524;14.104;2023-03-03T09:26:14;101791.91;;;-0.42;100.00
3122;BME280;1571;52.524;14.104;2023-03-03T09:28:47;101802.31;;;-0.54;100.00
3122;BME280;1571;52.524;14.104;2023-03-03T09:31:23;101800.59;;;-0.46;100.00
3122;BME280;1571;52.524;14.104;2023-03-03T09:33:52;101792.78;;;-0.42;100.00
3122;BME280;1571;52.524;14.104;2023-03-03T09:36:25;101791.91;;;-0.70;100.00
3122;BME280;1571;52.524;14.104;2023-03-03T09:38:55;101795.41;;;-0.58;100.00
3122;BME280;1571;52.524;14.104;2023-03-03T09:41:38;101799.69;;;-0.21;100.00
3122;BME280;1571;52.524;14.104;2023-03-03T09:44:23;101797.06;;;0.04;100.00
3122;BME280;1571;52.524;14.104;2023-03-03T09:47:10;101801.44;;;-0.06;100.00
3122;BME280;1571;52.524;14.104;2023-03-03T09:49:47;101806.63;;;0.08;100.00
3122;BME280;1571;52.524;14.104;2023-03-03T09:52:26;101802.28;;;0.10;100.00
3122;BME280;1571;52.524;14.104;2023-03-03T09:55:11;101792.66;;;0.22;100.00
3122;BME280;1571;52.524;14.104;2023-03-03T09:57:54;101791.00;;;-0.01;100.00
3122;BME280;1571;52.524;14.104;2023-03-03T10:00:49;101784.88;;;0.09;100.00
3122;BME280;1571;52.524;14.104;2023-03-03T10:03:36;101788.38;;;0.05;100.00
3122;BME280;1571;52.524;14.104;2023-03-03T10:06:16;101784.88;;;0.03;100.00
3122;BME280;1571;52.524;14.104;2023-03-03T10:08:57;101790.09;;;0.06;100.00
3122;BME280;1571;52.524;14.104;2023-03-03T10:11:37;101775.25;;;0.24;100.00
3122;BME280;1571;52.524;14.104;2023-03-03T10:14:28;101789.22;;;0.06;100.00
3122;BME280;1571;52.524;14.104;2023-03-03T10:17:23;101793.53;;;0.17;100.00
3122;BME280;1571;52.524;14.104;2023-03-03T10:20:06;101790.06;;;0.28;100.00
3122;BME280;1571;52.524;14.104;2023-03-03T10:22:42;101788.28;;;0.33;100.00
3122;BME280;1571;52.524;14.104;2023-03-03T10:25:22;101782.19;;;0.35;100.00
3122;BME280;1571;52.524;14.104;2023-03-03T10:28:04;101785.75;;;0.16;100.00
3122;BME280;1571;52.524;14.104;2023-03-03T10:30:44;101785.72;;;0.25;100.00
3122;BME280;1571;52.524;14.104;2023-03-03T10:33:38;101789.13;;;0.44;100.00
3122;BME280;1571;52.524;14.104;2023-03-03T10:36:21;101790.81;;;0.56;100.00
3122;BME280;1571;52.524;14.104;2023-03-03T10:39:04;101785.47;;;0.74;100.00
3122;BME280;1571;52.524;14.104;2023-03-03T10:41:46;101784.63;;;0.74;100.00
3122;BME280;1571;52.524;14.104;2023-03-03T10:44:37;101786.47;;;0.53;100.00
3122;BME280;1571;52.524;14.104;2023-03-03T10:47:24;101789.06;;;0.59;100.00
3122;BME280;1571;52.524;14.104;2023-03-03T10:50:04;101788.06;;;0.82;100.00
3122;BME280;1571;52.524;14.104;2023-03-03T10:52:43;101779.31;;;0.89;100.00
3122;BME280;1571;52.524;14.104;2023-03-03T10:55:25;101776.63;;;1.04;100.00
3122;BME280;1571;52.524;14.104;2023-03-03T10:58:15;101772.22;;;1.10;100.00
3122;BME280;1571;52.524;14.104;2023-03-03T11:00:51;101780.94;;;1.09;100.00
3122;BME280;1571;52.524;14.104;2023-03-03T11:03:37;101777.44;;;1.13;100.00
3122;BME280;1571;52.524;14.104;2023-03-03T11:06:14;101773.84;;;1.29;100.00
3122;BME280;1571;52.524;14.104;2023-03-03T11:08:48;101776.56;;;1.12;100.00
3122;BME280;1571;52.524;14.104;2023-03-03T11:11:28;101773.91;;;1.17;100.00
3122;BME280;1571;52.524;14.104;2023-03-03T11:14:04;101772.06;;;1.31;100.00
3122;BME280;1571;52.524;14.104;2023-03-03T11:16:53;101765.97;;;1.28;100.00
3122;BME280;1571;52.524;14.104;2023-03-03T11:19:35;101765.03;;;1.38;100.00
3122;BME280;1571;52.524;14.104;2023-03-03T11:22:16;101765.75;;;1.55;100.00
3122;BME280;1571;52.524;14.104;2023-03-03T11:24:58;101761.50;;;1.43;100.00
3122;BME280;1571;52.524;14.104;2023-03-03T11:27:54;101754.41;;;1.55;100.00
3122;BME280;1571;52.524;14.104;2023-03-03T11:30:35;101751.88;;;1.45;100.00
3122;BME280;1571;52.524;14.104;2023-03-03T11:33:10;101750.16;;;1.44;100.00
3122;BME280;1571;52.524;14.104;2023-03-03T11:35:43;101742.31;;;1.44;100.00
3122;BME280;1571;52.524;14.104;2023-03-03T11:38:23;101749.97;;;1.66;100.00
3122;BME280;1571;52.524;14.104;2023-03-03T11:41:01;101745.22;;;2.02;100.00
3122;BME280;1571;52.524;14.104;2023-03-03T11:43:37;101740.06;;;1.96;100.00
3122;BME280;1571;52.524;14.104;2023-03-03T11:46:12;101742.66;;;1.97;100.00
3122;BME280;1571;52.524;14.104;2023-03-03T11:48:46;101740.19;;;1.83;100.00
3122;BME280;1571;52.524;14.104;2023-03-03T11:51:25;101734.97;;;1.82;100.00
3122;BME280;1571;52.524;14.104;2023-03-03T11:54:03;101734.69;;;2.06;100.00
3122;BME280;1571;52.524;14.104;2023-03-03T11:56:38;101732.06;;;2.10;100.00
3122;BME280;1571;52.524;14.104;2023-03-03T11:59:41;101728.66;;;2.00;100.00
3122;BME280;1571;52.524;14.104;2023-03-03T12:02:28;101724.34;;;1.96;100.00
3122;BME280;1571;52.524;14.104;2023-03-03T12:05:05;101720.00;;;1.93;100.00
3122;BME280;1571;52.524;14.104;2023-03-03T12:07:41;101710.31;;;2.03;100.00
3122;BME280;1571;52.524;14.104;2023-03-03T12:10:18;101713.00;;;1.95;100.00
3122;BME280;1571;52.524;14.104;2023-03-03T12:12:56;101701.81;;;1.82;100.00
3122;BME280;1571;52.524;14.104;2023-03-03T12:15:33;101709.56;;;1.92;100.00
3122;BME280;1571;52.524;14.104;2023-03-03T12:18:16;101702.22;;;2.20;100.00
3122;BME280;1571;52.524;14.104;2023-03-03T12:20:52;101699.72;;;2.12;100.00
3122;BME280;1571;52.524;14.104;2023-03-03T12:23:50;101690.22;;;2.00;100.00
3122;BME280;1571;52.524;14.104;2023-03-03T12:26:26;101683.22;;;2.05;100.00
3122;BME280;1571;52.524;14.104;2023-03-03T12:29:05;101685.47;;;2.33;100.00
3122;BME280;1571;52.524;14.104;2023-03-03T12:31:40;101689.78;;;2.39;100.00
3122;BME280;1571;52.524;14.104;2023-03-03T12:34:17;101686.97;;;2.51;100.00
3122;BME280;1571;52.524;14.104;2023-03-03T12:37:05;101686.91;;;2.57;100.00
3122;BME280;1571;52.524;14.104;2023-03-03T12:39:46;101678.97;;;2.60;100.00
3122;BME280;1571;52.524;14.104;2023-03-03T12:42:24;101677.13;;;2.67;100.00
3122;BME280;1571;52.524;14.104;2023-03-03T12:45:06;101677.53;;;2.39;100.00
3122;BME280;1571;52.524;14.104;2023-03-03T12:47:41;101676.91;;;2.20;100.00
3122;BME280;1571;52.524;14.104;2023-03-03T12:50:26;101675.00;;;2.33;100.00
3122;BME280;1571;52.524;14.104;2023-03-03T12:53:05;101674.81;;;2.47;100.00
3122;BME280;1571;52.524;14.104;2023-03-03T12:55:43;101669.16;;;2.13;100.00
3122;BME280;1571;52.524;14.104;2023-03-03T12:58:24;101667.13;;;2.33;100.00
3122;BME280;1571;52.524;14.104;2023-03-03T13:01:09;101655.38;;;2.62;100.00
3122;BME280;1571;52.524;14.104;2023-03-03T13:03:47;101649.38;;;2.54;100.00
3122;BME280;1571;52.524;14.104;2023-03-03T13:06:26;101646.53;;;2.69;100.00
3122;BME280;1571;52.524;14.104;2023-03-03T13:09:02;101647.94;;;2.90;100.00
3122;BME280;1571;52.524;14.104;2023-03-03T13:11:51;101646.22;;;2.87;100.00
3122;BME280;1571;52.524;14.104;2023-03-03T13:14:29;101642.81;;;2.84;100.00
3122;BME280;1571;52.524;14.104;2023-03-03T13:17:06;101645.38;;;2.85;100.00
3122;BME280;1571;52.524;14.104;2023-03-03T13:19:39;101642.34;;;3.11;100.00
3122;BME280;1571;52.524;14.104;2023-03-03T13:22:12;101637.09;;;3.11;100.00
3122;BME280;1571;52.524;14.104;2023-03-03T13:24:53;101641.81;;;2.89;99.80
3122;BME280;1571;52.524;14.104;2023-03-03T13:27:27;101643.28;;;3.06;99.96
3122;BME280;1571;52.524;14.104;2023-03-03T13:30:00;101647.75;;;3.02;100.00